sensor_id;sensor_type;location;lat;lon;timestamp;temperature;humidity
18163;DHT22;9206;50.994;4.538;2022-10-22T00:02:05;14.40;99.90
18163;DHT22;9206;50.994;4.538;2022-10-22T00:05:05;14.30;99.90
18163;DHT22;9206;50.994;4.538;2022-10-22T00:07:54;14.30;99.90
18163;DHT22;9206;50.994;4.538;2022-10-22T00:10:44;14.30;99.90
18163;DHT22;9206;50.994;4.538;2022-10-22T00:13:35;14.40;99.90
18163;DHT22;9206;50.994;4.538;2022-10-22T00:16:23;14.40;99.90
18163;DHT22;9206;50.994;4.538;2022-10-22T00:19:12;14.40;99.90
18163;DHT22;9206;50.994;4.538;2022-10-22T00:22:02;14.40;99.90
18163;DHT22;9206;50.994;4.538;2022-10-22T00:24:52;14.40;99.90
18163;DHT22;9206;50.994;4.538;2022-10-22T00:27:40;14.50;99.90
18163;DHT22;9206;50.994;4.538;2022-10-22T00:30:31;14.50;99.90
18163;DHT22;9206;50.994;4.538;2022-10-22T00:33:19;14.50;99.90
18163;DHT22;9206;50.994;4.538;2022-10-22T00:36:13;14.60;99.90
18163;DHT22;9206;50.994;4.538;2022-10-22T00:39:06;14.60;99.90
18163;DHT22;9206;50.994;4.538;2022-10-22T00:41:57;14.60;99.90
18163;DHT22;9206;50.994;4.538;2022-10-22T00:45:05;14.70;99.90
18163;DHT22;9206;50.994;4.538;2022-10-22T00:51:16;14.70;99.90
18163;DHT22;9206;50.994;4.538;2022-10-22T00:54:11;14.70;99.90
18163;DHT22;9206;50.994;4.538;2022-10-22T00:57:06;14.60;99.90
18163;DHT22;9206;50.994;4.538;2022-10-22T00:59:53;14.60;99.90
18163;DHT22;9206;50.994;4.538;2022-10-22T01:02:45;14.60;99.90
18163;DHT22;9206;50.994;4.538;2022-10-22T01:05:40;14.70;99.90
18163;DHT22;9206;50.994;4.538;2022-10-22T01:08:36;14.60;99.90
18163;DHT22;9206;50.994;4.538;2022-10-22T01:11:35;14.60;99.90
18163;DHT22;9206;50.994;4.538;2022-10-22T01:14:40;14.50;99.90
18163;DHT22;9206;50.994;4.538;2022-10-22T01:17:35;14.40;99.90
18163;DHT22;9206;50.994;4.538;2022-10-22T01:20:45;14.50;99.90
18163;DHT22;9206;50.994;4.538;2022-10-22T01:24:07;14.50;99.90
18163;DHT22;9206;50.994;4.538;2022-10-22T01:27:22;14.60;99.90
18163;DHT22;9206;50.994;4.538;2022-10-22T01:30:18;14.60;99.90
18163;DHT22;9206;50.994;4.538;2022-10-22T01:33:10;14.60;99.90
18163;DHT22;9206;50.994;4.538;2022-10-22T01:36:02;14.60;99.90
18163;DHT22;9206;50.994;4.538;2022-10-22T01:38:59;14.50;99.90
18163;DHT22;9206;50.994;4.538;2022-10-22T01:41:53;14.50;99.90
18163;DHT22;9206;50.994;4.538;2022-10-22T01:44:50;14.50;99.90
18163;DHT22;9206;50.994;4.538;2022-10-22T01:47:56;14.40;99.90
18163;DHT22;9206;50.994;4.538;2022-10-22T01:51:18;14.40;99.90
18163;DHT22;9206;50.994;4.538;2022-10-22T01:54:24;14.40;99.90
18163;DHT22;9206;50.994;4.538;2022-10-22T01:57:20;14.30;99.90
18163;DHT22;9206;50.994;4.538;2022-10-22T02:00:12;14.30;99.90
18163;DHT22;9206;50.994;4.538;2022-10-22T02:03:05;14.20;99.90
18163;DHT22;9206;50.994;4.538;2022-10-22T02:05:58;14.20;99.90
18163;DHT22;9206;50.994;4.538;2022-10-22T02:08:48;14.10;99.90
18163;DHT22;9206;50.994;4.538;2022-10-22T02:11:37;14.10;99.90
18163;DHT22;9206;50.994;4.538;2022-10-22T02:14:30;14.00;99.90
18163;DHT22;9206;50.994;4.538;2022-10-22T02:17:21;14.00;99.90
18163;DHT22;9206;50.994;4.538;2022-10-22T02:20:14;14.00;99.90
18163;DHT22;9206;50.994;4.538;2022-10-22T02:23:03;14.00;99.90
18163;DHT22;9206;50.994;4.538;2022-10-22T02:25:57;14.00;99.90
18163;DHT22;9206;50.994;4.538;2022-10-22T02:28:54;14.00;99.90
18163;DHT22;9206;50.994;4.538;2022-10-22T02:31:46;13.90;99.90
18163;DHT22;9206;50.994;4.538;2022-10-22T02:34:34;13.90;99.90
18163;DHT22;9206;50.994;4.538;2022-10-22T02:37:29;13.90;99.90
18163;DHT22;9206;50.994;4.538;2022-10-22T02:40:17;13.90;99.90
18163;DHT22;9206;50.994;4.538;2022-10-22T02:43:07;14.00;99.90
18163;DHT22;9206;50.994;4.538;2022-10-22T02:46:01;13.90;99.90
18163;DHT22;9206;50.994;4.538;2022-10-22T02:48:54;13.90;99.90
18163;DHT22;9206;50.994;4.538;2022-10-22T02:51:42;14.00;99.90
18163;DHT22;9206;50.994;4.538;2022-10-22T02:54:33;13.90;99.90
18163;DHT22;9206;50.994;4.538;2022-10-22T02:57:21;14.00;99.90
18163;DHT22;9206;50.994;4.538;2022-10-22T03:00:10;13.90;99.90
18163;DHT22;9206;50.994;4.538;2022-10-22T03:02:58;13.90;99.90
18163;DHT22;9206;50.994;4.538;2022-10-22T03:05:46;13.80;99.90
18163;DHT22;9206;50.994;4.538;2022-10-22T03:08:34;13.90;99.90
18163;DHT22;9206;50.994;4.538;2022-10-22T03:11:29;13.90;99.90
18163;DHT22;9206;50.994;4.538;2022-10-22T03:14:22;13.90;99.90
18163;DHT22;9206;50.994;4.538;2022-10-22T03:17:15;13.90;99.90
18163;DHT22;9206;50.994;4.538;2022-10-22T03:20:09;13.90;99.90
18163;DHT22;9206;50.994;4.538;2022-10-22T03:22:59;13.90;99.90
18163;DHT22;9206;50.994;4.538;2022-10-22T03:25:49;13.80;99.90
18163;DHT22;9206;50.994;4.538;2022-10-22T03:28:40;13.80;99.90
18163;DHT22;9206;50.994;4.538;2022-10-22T03:31:28;13.80;99.90
18163;DHT22;9206;50.994;4.538;2022-10-22T03:34:19;13.90;99.90
18163;DHT22;9206;50.994;4.538;2022-10-22T03:37:07;13.90;99.90
18163;DHT22;9206;50.994;4.538;2022-10-22T03:40:02;14.00;99.90
18163;DHT22;9206;50.994;4.538;2022-10-22T03:42:55;14.00;99.90
18163;DHT22;9206;50.994;4.538;2022-10-22T03:45:46;14.10;99.90
18163;DHT22;9206;50.994;4.538;2022-10-22T03:48:36;14.10;99.90
18163;DHT22;9206;50.994;4.538;2022-10-22T03:51:30;14.20;99.90
18163;DHT22;9206;50.994;4.538;2022-10-22T03:54:18;14.20;99.90
18163;DHT22;9206;50.994;4.538;2022-10-22T03:57:22;14.30;99.90
18163;DHT22;9206;50.994;4.538;2022-10-22T04:00:18;14.30;99.90
18163;DHT22;9206;50.994;4.538;2022-10-22T04:03:13;14.20;99.90
18163;DHT22;9206;50.994;4.538;2022-10-22T04:06:02;14.30;99.90
18163;DHT22;9206;50.994;4.538;2022-10-22T04:08:52;14.40;99.90
18163;DHT22;9206;50.994;4.538;2022-10-22T04:11:46;14.30;99.90
18163;DHT22;9206;50.994;4.538;2022-10-22T04:14:39;14.40;99.90
18163;DHT22;9206;50.994;4.538;2022-10-22T04:17:43;14.40;99.90
18163;DHT22;9206;50.994;4.538;2022-10-22T04:20:32;14.30;99.90
18163;DHT22;9206;50.994;4.538;2022-10-22T04:23:25;14.30;99.90
18163;DHT22;9206;50.994;4.538;2022-10-22T04:26:17;14.20;99.90
18163;DHT22;9206;50.994;4.538;2022-10-22T04:29:18;14.10;99.90
18163;DHT22;9206;50.994;4.538;2022-10-22T04:32:14;14.10;99.90
18163;DHT22;9206;50.994;4.538;2022-10-22T04:35:20;14.10;99.90
18163;DHT22;9206;50.994;4.538;2022-10-22T04:38:12;13.90;99.90
18163;DHT22;9206;50.994;4.538;2022-10-22T04:41:10;14.00;99.90
18163;DHT22;9206;50.994;4.538;2022-10-22T04:44:05;13.90;99.90
18163;DHT22;9206;50.994;4.538;2022-10-22T04:46:52;13.90;99.90
18163;DHT22;9206;50.994;4.538;2022-10-22T04:49:45;13.80;99.90
18163;DHT22;9206;50.994;4.538;2022-10-22T04:52:39;13.80;99.90
18163;DHT22;9206;50.994;4.538;2022-10-22T04:55:31;13.70;99.90
18163;DHT22;9206;50.994;4.538;2022-10-22T04:58:20;13.70;99.90
18163;DHT22;9206;50.994;4.538;2022-10-22T05:01:19;13.60;99.90
18163;DHT22;9206;50.994;4.538;2022-10-22T05:04:12;13.60;99.90
18163;DHT22;9206;50.994;4.538;2022-10-22T05:07:02;13.60;99.90
18163;DHT22;9206;50.994;4.538;2022-10-22T05:09:52;13.60;99.90
18163;DHT22;9206;50.994;4.538;2022-10-22T05:12:41;13.70;99.90
18163;DHT22;9206;50.994;4.538;2022-10-22T05:15:31;13.80;99.90
18163;DHT22;9206;50.994;4.538;2022-10-22T05:18:34;13.90;99.90
18163;DHT22;9206;50.994;4.538;2022-10-22T05:21:25;14.00;99.90
18163;DHT22;9206;50.994;4.538;2022-10-22T05:24:14;14.10;99.90
18163;DHT22;9206;50.994;4.538;2022-10-22T05:27:21;14.10;99.90
18163;DHT22;9206;50.994;4.538;2022-10-22T05:30:13;14.20;99.90
18163;DHT22;9206;50.994;4.538;2022-10-22T05:33:18;14.30;99.90
18163;DHT22;9206;50.994;4.538;2022-10-22T05:36:14;14.40;99.90
18163;DHT22;9206;50.994;4.538;2022-10-22T05:39:16;14.50;99.90
18163;DHT22;9206;50.994;4.538;2022-10-22T05:42:06;14.60;99.90
18163;DHT22;9206;50.994;4.538;2022-10-22T05:44:53;14.60;99.90
18163;DHT22;9206;50.994;4.538;2022-10-22T05:47:42;14.60;99.90
18163;DHT22;9206;50.994;4.538;2022-10-22T05:50:34;14.70;99.90
18163;DHT22;9206;50.994;4.538;2022-10-22T05:53:24;14.70;99.90
18163;DHT22;9206;50.994;4.538;2022-10-22T05:56:15;14.80;99.90
18163;DHT22;9206;50.994;4.538;2022-10-22T05:59:03;14.80;99.90
18163;DHT22;9206;50.994;4.538;2022-10-22T06:01:56;14.80;99.90
18163;DHT22;9206;50.994;4.538;2022-10-22T06:04:46;14.90;99.90
18163;DHT22;9206;50.994;4.538;2022-10-22T06:07:34;14.90;99.90
18163;DHT22;9206;50.994;4.538;2022-10-22T06:10:25;15.00;99.90
18163;DHT22;9206;50.994;4.538;2022-10-22T06:13:18;14.90;99.90
18163;DHT22;9206;50.994;4.538;2022-10-22T06:16:11;14.90;99.90
18163;DHT22;9206;50.994;4.538;2022-10-22T06:19:00;14.90;99.90
18163;DHT22;9206;50.994;4.538;2022-10-22T06:21:52;14.90;99.90
18163;DHT22;9206;50.994;4.538;2022-10-22T06:24:39;14.80;99.90
18163;DHT22;9206;50.994;4.538;2022-10-22T06:27:33;14.80;99.90
18163;DHT22;9206;50.994;4.538;2022-10-22T06:30:21;14.70;99.90
18163;DHT22;9206;50.994;4.538;2022-10-22T06:33:09;14.70;99.90
18163;DHT22;9206;50.994;4.538;2022-10-22T06:36:10;14.70;99.90
18163;DHT22;9206;50.994;4.538;2022-10-22T06:39:16;14.70;99.90
18163;DHT22;9206;50.994;4.538;2022-10-22T06:42:06;14.70;99.90
18163;DHT22;9206;50.994;4.538;2022-10-22T06:45:03;14.70;99.90
18163;DHT22;9206;50.994;4.538;2022-10-22T06:47:53;14.70;99.90
18163;DHT22;9206;50.994;4.538;2022-10-22T06:50:49;14.80;99.90
18163;DHT22;9206;50.994;4.538;2022-10-22T06:53:43;14.90;99.90
18163;DHT22;9206;50.994;4.538;2022-10-22T06:56:33;14.90;99.90
18163;DHT22;9206;50.994;4.538;2022-10-22T06:59:26;15.00;99.90
18163;DHT22;9206;50.994;4.538;2022-10-22T07:02:19;15.00;99.90
18163;DHT22;9206;50.994;4.538;2022-10-22T07:05:09;15.10;99.90
18163;DHT22;9206;50.994;4.538;2022-10-22T07:07:58;15.10;99.90
18163;DHT22;9206;50.994;4.538;2022-10-22T07:10:50;15.20;99.90
18163;DHT22;9206;50.994;4.538;2022-10-22T07:13:40;15.30;99.90
18163;DHT22;9206;50.994;4.538;2022-10-22T07:16:33;15.40;99.90
18163;DHT22;9206;50.994;4.538;2022-10-22T07:19:21;15.50;99.90
18163;DHT22;9206;50.994;4.538;2022-10-22T07:22:10;15.40;99.90
18163;DHT22;9206;50.994;4.538;2022-10-22T07:25:01;15.50;99.90
18163;DHT22;9206;50.994;4.538;2022-10-22T07:27:50;15.60;99.90
18163;DHT22;9206;50.994;4.538;2022-10-22T07:30:45;15.80;99.90
18163;DHT22;9206;50.994;4.538;2022-10-22T07:33:42;15.90;99.90
18163;DHT22;9206;50.994;4.538;2022-10-22T07:36:33;16.00;99.90
18163;DHT22;9206;50.994;4.538;2022-10-22T07:39:21;16.00;99.90
18163;DHT22;9206;50.994;4.538;2022-10-22T07:42:14;16.10;99.90
18163;DHT22;9206;50.994;4.538;2022-10-22T07:45:04;16.40;99.90
18163;DHT22;9206;50.994;4.538;2022-10-22T07:47:54;16.50;99.90
18163;DHT22;9206;50.994;4.538;2022-10-22T07:50:48;16.70;99.90
18163;DHT22;9206;50.994;4.538;2022-10-22T07:53:45;16.90;99.90
18163;DHT22;9206;50.994;4.538;2022-10-22T07:56:34;17.00;99.90
18163;DHT22;9206;50.994;4.538;2022-10-22T07:59:27;17.00;99.90
18163;DHT22;9206;50.994;4.538;2022-10-22T08:02:25;17.20;99.90
18163;DHT22;9206;50.994;4.538;2022-10-22T08:05:14;17.50;99.90
18163;DHT22;9206;50.994;4.538;2022-10-22T08:08:05;17.60;99.90
18163;DHT22;9206;50.994;4.538;2022-10-22T08:11:01;17.70;99.90
18163;DHT22;9206;50.994;4.538;2022-10-22T08:13:51;17.70;99.90
18163;DHT22;9206;50.994;4.538;2022-10-22T08:16:39;17.50;99.90
18163;DHT22;9206;50.994;4.538;2022-10-22T08:19:34;17.40;99.90
18163;DHT22;9206;50.994;4.538;2022-10-22T08:22:25;17.30;99.90
18163;DHT22;9206;50.994;4.538;2022-10-22T08:25:28;17.30;99.90
18163;DHT22;9206;50.994;4.538;2022-10-22T08:28:16;17.20;99.90
18163;DHT22;9206;50.994;4.538;2022-10-22T08:31:08;17.10;99.90
18163;DHT22;9206;50.994;4.538;2022-10-22T08:33:56;17.00;99.90
18163;DHT22;9206;50.994;4.538;2022-10-22T08:37:00;17.00;99.90
18163;DHT22;9206;50.994;4.538;2022-10-22T08:39:51;16.90;99.90
18163;DHT22;9206;50.994;4.538;2022-10-22T08:46:14;17.00;99.90
18163;DHT22;9206;50.994;4.538;2022-10-22T08:49:07;17.10;99.90
18163;DHT22;9206;50.994;4.538;2022-10-22T08:51:58;17.10;99.90
18163;DHT22;9206;50.994;4.538;2022-10-22T08:54:51;17.00;99.90
18163;DHT22;9206;50.994;4.538;2022-10-22T08:57:49;17.00;99.90
18163;DHT22;9206;50.994;4.538;2022-10-22T09:00:44;17.00;99.90
18163;DHT22;9206;50.994;4.538;2022-10-22T09:03:40;17.00;99.90
18163;DHT22;9206;50.994;4.538;2022-10-22T09:06:32;17.40;99.90
18163;DHT22;9206;50.994;4.538;2022-10-22T09:09:24;18.00;99.90
18163;DHT22;9206;50.994;4.538;2022-10-22T09:12:15;18.30;99.90
18163;DHT22;9206;50.994;4.538;2022-10-22T09:15:04;18.60;99.90
18163;DHT22;9206;50.994;4.538;2022-10-22T09:18:05;18.90;99.90
18163;DHT22;9206;50.994;4.538;2022-10-22T09:21:10;18.80;99.90
18163;DHT22;9206;50.994;4.538;2022-10-22T09:24:04;18.60;99.90
18163;DHT22;9206;50.994;4.538;2022-10-22T09:26:52;19.00;99.90
18163;DHT22;9206;50.994;4.538;2022-10-22T09:29:49;19.40;99.90
18163;DHT22;9206;50.994;4.538;2022-10-22T09:32:38;19.90;99.90
18163;DHT22;9206;50.994;4.538;2022-10-22T09:35:33;20.40;99.90
18163;DHT22;9206;50.994;4.538;2022-10-22T09:38:25;21.70;99.90
18163;DHT22;9206;50.994;4.538;2022-10-22T09:41:18;23.50;99.90
18163;DHT22;9206;50.994;4.538;2022-10-22T09:44:06;25.70;99.90
18163;DHT22;9206;50.994;4.538;2022-10-22T09:46:54;27.70;99.90
18163;DHT22;9206;50.994;4.538;2022-10-22T09:49:48;28.40;99.90
18163;DHT22;9206;50.994;4.538;2022-10-22T09:52:39;27.40;99.90
18163;DHT22;9206;50.994;4.538;2022-10-22T09:55:26;27.10;99.90
18163;DHT22;9206;50.994;4.538;2022-10-22T09:58:14;27.50;99.90
18163;DHT22;9206;50.994;4.538;2022-10-22T10:01:07;27.80;99.90
18163;DHT22;9206;50.994;4.538;2022-10-22T10:04:04;28.20;99.90
18163;DHT22;9206;50.994;4.538;2022-10-22T10:06:54;27.20;99.90
18163;DHT22;9206;50.994;4.538;2022-10-22T10:09:53;26.70;99.90
18163;DHT22;9206;50.994;4.538;2022-10-22T10:12:44;26.50;99.90
18163;DHT22;9206;50.994;4.538;2022-10-22T10:15:39;25.30;99.90
18163;DHT22;9206;50.994;4.538;2022-10-22T10:18:42;23.50;99.90
18163;DHT22;9206;50.994;4.538;2022-10-22T10:21:44;23.20;99.90
18163;DHT22;9206;50.994;4.538;2022-10-22T10:24:51;23.40;99.90
18163;DHT22;9206;50.994;4.538;2022-10-22T10:27:54;23.60;99.90
18163;DHT22;9206;50.994;4.538;2022-10-22T10:30:51;24.30;99.90
18163;DHT22;9206;50.994;4.538;2022-10-22T10:33:53;25.40;99.90
18163;DHT22;9206;50.994;4.538;2022-10-22T10:36:57;26.40;99.90
18163;DHT22;9206;50.994;4.538;2022-10-22T10:43:08;26.10;99.90
18163;DHT22;9206;50.994;4.538;2022-10-22T10:46:09;25.30;99.90
18163;DHT22;9206;50.994;4.538;2022-10-22T10:49:07;24.90;99.90
18163;DHT22;9206;50.994;4.538;2022-10-22T10:52:08;25.80;99.90
18163;DHT22;9206;50.994;4.538;2022-10-22T10:55:12;27.00;99.90
18163;DHT22;9206;50.994;4.538;2022-10-22T10:58:15;27.10;99.90
18163;DHT22;9206;50.994;4.538;2022-10-22T11:01:14;26.90;99.90
18163;DHT22;9206;50.994;4.538;2022-10-22T11:04:19;26.20;99.90
18163;DHT22;9206;50.994;4.538;2022-10-22T11:07:13;25.30;99.90
18163;DHT22;9206;50.994;4.538;2022-10-22T11:10:15;27.10;99.90
18163;DHT22;9206;50.994;4.538;2022-10-22T11:13:17;27.80;99.90
18163;DHT22;9206;50.994;4.538;2022-10-22T11:16:14;26.60;99.90
18163;DHT22;9206;50.994;4.538;2022-10-22T11:19:22;27.10;99.90
18163;DHT22;9206;50.994;4.538;2022-10-22T11:22:25;28.10;99.90
18163;DHT22;9206;50.994;4.538;2022-10-22T11:25:19;28.30;99.90
18163;DHT22;9206;50.994;4.538;2022-10-22T11:28:15;28.20;99.90
18163;DHT22;9206;50.994;4.538;2022-10-22T11:31:14;28.80;99.90
18163;DHT22;9206;50.994;4.538;2022-10-22T11:34:15;27.10;99.90
18163;DHT22;9206;50.994;4.538;2022-10-22T11:37:12;26.80;99.90
18163;DHT22;9206;50.994;4.538;2022-10-22T11:40:05;25.90;99.90
18163;DHT22;9206;50.994;4.538;2022-10-22T11:42:56;27.60;99.90
18163;DHT22;9206;50.994;4.538;2022-10-22T11:45:49;26.80;99.90
18163;DHT22;9206;50.994;4.538;2022-10-22T11:48:59;25.70;99.90
18163;DHT22;9206;50.994;4.538;2022-10-22T11:51:50;24.80;99.90
18163;DHT22;9206;50.994;4.538;2022-10-22T11:54:40;23.70;99.90
18163;DHT22;9206;50.994;4.538;2022-10-22T11:57:41;23.10;99.90
18163;DHT22;9206;50.994;4.538;2022-10-22T12:00:45;22.60;99.90
18163;DHT22;9206;50.994;4.538;2022-10-22T12:03:40;22.10;99.90
18163;DHT22;9206;50.994;4.538;2022-10-22T12:06:58;21.50;99.90
18163;DHT22;9206;50.994;4.538;2022-10-22T12:09:57;21.10;99.90
18163;DHT22;9206;50.994;4.538;2022-10-22T12:12:55;20.90;99.90
18163;DHT22;9206;50.994;4.538;2022-10-22T12:15:53;20.90;99.90
18163;DHT22;9206;50.994;4.538;2022-10-22T12:18:45;20.80;99.90
18163;DHT22;9206;50.994;4.538;2022-10-22T12:21:37;20.80;99.90
18163;DHT22;9206;50.994;4.538;2022-10-22T12:24:29;21.10;99.90
18163;DHT22;9206;50.994;4.538;2022-10-22T12:27:38;23.50;99.90
18163;DHT22;9206;50.994;4.538;2022-10-22T12:30:33;23.40;99.90
18163;DHT22;9206;50.994;4.538;2022-10-22T12:33:39;22.90;99.90
18163;DHT22;9206;50.994;4.538;2022-10-22T12:36:34;22.60;99.90
18163;DHT22;9206;50.994;4.538;2022-10-22T12:39:30;23.10;99.90
18163;DHT22;9206;50.994;4.538;2022-10-22T12:42:30;25.30;99.90
18163;DHT22;9206;50.994;4.538;2022-10-22T12:45:24;27.40;99.90
18163;DHT22;9206;50.994;4.538;2022-10-22T12:48:19;27.90;99.90
18163;DHT22;9206;50.994;4.538;2022-10-22T12:51:14;26.80;99.90
18163;DHT22;9206;50.994;4.538;2022-10-22T12:54:15;25.70;99.90
18163;DHT22;9206;50.994;4.538;2022-10-22T12:57:08;27.40;99.90
18163;DHT22;9206;50.994;4.538;2022-10-22T13:00:03;28.80;99.90
18163;DHT22;9206;50.994;4.538;2022-10-22T13:02:59;30.10;99.90
18163;DHT22;9206;50.994;4.538;2022-10-22T13:05:55;29.20;99.90
18163;DHT22;9206;50.994;4.538;2022-10-22T13:08:57;29.50;99.90
18163;DHT22;9206;50.994;4.538;2022-10-22T13:12:02;28.60;99.90
18163;DHT22;9206;50.994;4.538;2022-10-22T13:14:58;26.60;99.90
18163;DHT22;9206;50.994;4.538;2022-10-22T13:18:15;25.10;99.90
18163;DHT22;9206;50.994;4.538;2022-10-22T13:21:04;24.30;99.90
18163;DHT22;9206;50.994;4.538;2022-10-22T13:23:59;24.70;99.90
18163;DHT22;9206;50.994;4.538;2022-10-22T13:26:56;23.90;99.90
18163;DHT22;9206;50.994;4.538;2022-10-22T13:29:51;23.00;99.90
18163;DHT22;9206;50.994;4.538;2022-10-22T13:32:51;22.60;99.90
18163;DHT22;9206;50.994;4.538;2022-10-22T13:35:40;25.00;99.90
18163;DHT22;9206;50.994;4.538;2022-10-22T13:38:30;25.00;99.90
18163;DHT22;9206;50.994;4.538;2022-10-22T13:41:25;25.00;99.90
18163;DHT22;9206;50.994;4.538;2022-10-22T13:44:17;26.80;99.90
18163;DHT22;9206;50.994;4.538;2022-10-22T13:47:19;26.60;99.90
18163;DHT22;9206;50.994;4.538;2022-10-22T13:50:13;28.20;99.90
18163;DHT22;9206;50.994;4.538;2022-10-22T13:53:04;27.20;99.90
18163;DHT22;9206;50.994;4.538;2022-10-22T13:55:57;26.10;99.90
18163;DHT22;9206;50.994;4.538;2022-10-22T13:58:48;26.50;99.90
18163;DHT22;9206;50.994;4.538;2022-10-22T14:01:39;27.00;99.90
18163;DHT22;9206;50.994;4.538;2022-10-22T14:04:28;27.00;99.90
18163;DHT22;9206;50.994;4.538;2022-10-22T14:07:17;26.00;99.90
18163;DHT22;9206;50.994;4.538;2022-10-22T14:10:14;24.70;99.90
18163;DHT22;9206;50.994;4.538;2022-10-22T14:13:06;23.70;99.90
18163;DHT22;9206;50.994;4.538;2022-10-22T14:16:00;25.30;99.90
18163;DHT22;9206;50.994;4.538;2022-10-22T14:18:50;26.70;99.90
18163;DHT22;9206;50.994;4.538;2022-10-22T14:21:40;26.10;99.90
18163;DHT22;9206;50.994;4.538;2022-10-22T14:24:34;24.90;99.90
18163;DHT22;9206;50.994;4.538;2022-10-22T14:27:21;24.30;99.90
18163;DHT22;9206;50.994;4.538;2022-10-22T14:30:12;25.50;99.90
18163;DHT22;9206;50.994;4.538;2022-10-22T14:33:09;25.90;99.90
18163;DHT22;9206;50.994;4.538;2022-10-22T14:36:02;25.10;99.90
18163;DHT22;9206;50.994;4.538;2022-10-22T14:38:52;25.20;99.90
18163;DHT22;9206;50.994;4.538;2022-10-22T14:41:46;25.40;99.90
18163;DHT22;9206;50.994;4.538;2022-10-22T14:44:40;25.10;99.90
18163;DHT22;9206;50.994;4.538;2022-10-22T14:47:31;25.00;99.90
18163;DHT22;9206;50.994;4.538;2022-10-22T14:50:31;25.40;99.90
18163;DHT22;9206;50.994;4.538;2022-10-22T14:53:19;25.40;99.90
18163;DHT22;9206;50.994;4.538;2022-10-22T14:56:11;25.50;99.90
18163;DHT22;9206;50.994;4.538;2022-10-22T14:59:01;25.30;99.90
18163;DHT22;9206;50.994;4.538;2022-10-22T15:01:48;25.20;99.90
18163;DHT22;9206;50.994;4.538;2022-10-22T15:04:38;25.30;99.90
18163;DHT22;9206;50.994;4.538;2022-10-22T15:07:28;25.50;99.90
18163;DHT22;9206;50.994;4.538;2022-10-22T15:10:22;25.40;99.90
18163;DHT22;9206;50.994;4.538;2022-10-22T15:13:09;24.80;99.90
18163;DHT22;9206;50.994;4.538;2022-10-22T15:15:57;24.10;99.90
18163;DHT22;9206;50.994;4.538;2022-10-22T15:18:45;23.40;99.90
18163;DHT22;9206;50.994;4.538;2022-10-22T15:21:36;22.70;99.90
18163;DHT22;9206;50.994;4.538;2022-10-22T15:24:23;22.10;99.90
18163;DHT22;9206;50.994;4.538;2022-10-22T15:27:13;21.50;99.90
18163;DHT22;9206;50.994;4.538;2022-10-22T15:30:04;21.00;99.90
18163;DHT22;9206;50.994;4.538;2022-10-22T15:32:51;20.60;99.90
18163;DHT22;9206;50.994;4.538;2022-10-22T15:35:49;20.40;99.90
18163;DHT22;9206;50.994;4.538;2022-10-22T15:38:46;20.10;99.90
18163;DHT22;9206;50.994;4.538;2022-10-22T15:41:54;19.90;99.90
18163;DHT22;9206;50.994;4.538;2022-10-22T15:44:56;19.80;99.90
18163;DHT22;9206;50.994;4.538;2022-10-22T15:47:47;19.70;99.90
18163;DHT22;9206;50.994;4.538;2022-10-22T15:50:38;19.60;99.90
18163;DHT22;9206;50.994;4.538;2022-10-22T15:53:26;19.50;99.90
18163;DHT22;9206;50.994;4.538;2022-10-22T15:56:22;19.40;99.90
18163;DHT22;9206;50.994;4.538;2022-10-22T15:59:14;19.30;99.90
18163;DHT22;9206;50.994;4.538;2022-10-22T16:02:04;19.30;99.90
18163;DHT22;9206;50.994;4.538;2022-10-22T16:04:55;19.20;99.90
18163;DHT22;9206;50.994;4.538;2022-10-22T16:07:44;19.10;99.90
18163;DHT22;9206;50.994;4.538;2022-10-22T16:10:34;18.90;99.90
18163;DHT22;9206;50.994;4.538;2022-10-22T16:13:26;18.80;99.90
18163;DHT22;9206;50.994;4.538;2022-10-22T16:16:14;18.60;99.90
18163;DHT22;9206;50.994;4.538;2022-10-22T16:19:08;18.40;99.90
18163;DHT22;9206;50.994;4.538;2022-10-22T16:22:08;18.20;99.90
18163;DHT22;9206;50.994;4.538;2022-10-22T16:25:00;18.10;99.90
18163;DHT22;9206;50.994;4.538;2022-10-22T16:27:51;17.90;99.90
18163;DHT22;9206;50.994;4.538;2022-10-22T16:30:42;17.70;99.90
18163;DHT22;9206;50.994;4.538;2022-10-22T16:33:32;17.60;99.90
18163;DHT22;9206;50.994;4.538;2022-10-22T16:36:23;17.40;99.90
18163;DHT22;9206;50.994;4.538;2022-10-22T16:39:16;17.40;99.90
18163;DHT22;9206;50.994;4.538;2022-10-22T16:42:10;17.20;99.90
18163;DHT22;9206;50.994;4.538;2022-10-22T16:44:59;17.00;99.90
18163;DHT22;9206;50.994;4.538;2022-10-22T16:47:50;16.80;99.90
18163;DHT22;9206;50.994;4.538;2022-10-22T16:50:39;16.70;99.90
18163;DHT22;9206;50.994;4.538;2022-10-22T16:53:27;16.60;99.90
18163;DHT22;9206;50.994;4.538;2022-10-22T16:56:17;16.50;99.90
18163;DHT22;9206;50.994;4.538;2022-10-22T16:59:07;16.50;99.90
18163;DHT22;9206;50.994;4.538;2022-10-22T17:02:00;16.40;99.90
18163;DHT22;9206;50.994;4.538;2022-10-22T17:04:51;16.20;99.90
18163;DHT22;9206;50.994;4.538;2022-10-22T17:07:45;16.20;99.90
18163;DHT22;9206;50.994;4.538;2022-10-22T17:10:38;16.10;99.90
18163;DHT22;9206;50.994;4.538;2022-10-22T17:13:26;16.00;99.90
18163;DHT22;9206;50.994;4.538;2022-10-22T17:16:17;15.90;99.90
18163;DHT22;9206;50.994;4.538;2022-10-22T17:19:12;15.80;99.90
18163;DHT22;9206;50.994;4.538;2022-10-22T17:22:09;15.70;99.90
18163;DHT22;9206;50.994;4.538;2022-10-22T17:25:08;15.60;99.90
18163;DHT22;9206;50.994;4.538;2022-10-22T17:27:56;15.50;99.90
18163;DHT22;9206;50.994;4.538;2022-10-22T17:30:49;15.50;99.90
18163;DHT22;9206;50.994;4.538;2022-10-22T17:33:49;15.40;99.90
18163;DHT22;9206;50.994;4.538;2022-10-22T17:36:39;15.30;99.90
18163;DHT22;9206;50.994;4.538;2022-10-22T17:39:29;15.30;99.90
18163;DHT22;9206;50.994;4.538;2022-10-22T17:42:23;15.30;99.90
18163;DHT22;9206;50.994;4.538;2022-10-22T17:45:12;15.20;99.90
18163;DHT22;9206;50.994;4.538;2022-10-22T17:48:00;15.10;99.90
18163;DHT22;9206;50.994;4.538;2022-10-22T17:50:54;15.10;99.90
18163;DHT22;9206;50.994;4.538;2022-10-22T17:53:50;15.00;99.90
18163;DHT22;9206;50.994;4.538;2022-10-22T17:56:44;14.90;99.90
18163;DHT22;9206;50.994;4.538;2022-10-22T17:59:34;14.90;99.90
18163;DHT22;9206;50.994;4.538;2022-10-22T18:02:24;15.00;99.90
18163;DHT22;9206;50.994;4.538;2022-10-22T18:05:19;14.90;99.90
18163;DHT22;9206;50.994;4.538;2022-10-22T18:08:12;15.00;99.90
18163;DHT22;9206;50.994;4.538;2022-10-22T18:11:04;15.00;99.90
18163;DHT22;9206;50.994;4.538;2022-10-22T18:14:13;15.00;99.90
18163;DHT22;9206;50.994;4.538;2022-10-22T18:17:00;15.00;99.90
18163;DHT22;9206;50.994;4.538;2022-10-22T18:19:48;14.90;99.90
18163;DHT22;9206;50.994;4.538;2022-10-22T18:22:38;14.80;99.90
18163;DHT22;9206;50.994;4.538;2022-10-22T18:25:37;14.80;99.90
18163;DHT22;9206;50.994;4.538;2022-10-22T18:28:30;14.80;99.90
18163;DHT22;9206;50.994;4.538;2022-10-22T18:31:21;14.70;99.90
18163;DHT22;9206;50.994;4.538;2022-10-22T18:34:15;14.60;99.90
18163;DHT22;9206;50.994;4.538;2022-10-22T18:37:14;14.50;99.90
18163;DHT22;9206;50.994;4.538;2022-10-22T18:40:09;14.50;99.90
18163;DHT22;9206;50.994;4.538;2022-10-22T18:43:08;14.40;99.90
18163;DHT22;9206;50.994;4.538;2022-10-22T18:45:59;14.40;99.90